createdAt,value
2019-03-03T00:01:34.246Z,40.63
2019-03-03T00:04:01.995Z,41.04
2019-03-03T00:06:29.793Z,40.88
2019-03-03T00:08:57.791Z,40.86
2019-03-03T00:11:25.510Z,40.89
2019-03-03T00:13:53.279Z,40.96
2019-03-03T00:16:21.039Z,41.00
2019-03-03T00:18:48.799Z,41.12
2019-03-03T00:21:16.596Z,41.32
2019-03-03T00:23:47.262Z,41.06
2019-03-03T00:26:21.220Z,41.27
2019-03-03T00:28:48.958Z,41.61
2019-03-03T00:31:17.279Z,41.16
2019-03-03T00:33:45.004Z,41.42
2019-03-03T00:36:12.730Z,41.99
2019-03-03T00:38:56.488Z,41.42
2019-03-03T00:41:54.802Z,41.41
2019-03-03T00:44:31.959Z,41.68
2019-03-03T00:47:21.615Z,41.48
2019-03-03T00:50:04.359Z,41.65
2019-03-03T00:53:07.870Z,41.89
2019-03-03T00:55:46.202Z,41.81
2019-03-03T00:58:51.255Z,41.69
2019-03-03T01:01:38.096Z,41.63
2019-03-03T01:04:23.687Z,41.85
2019-03-03T01:07:12.125Z,41.83
2019-03-03T01:09:48.058Z,41.87
2019-03-03T01:12:40.051Z,43.39
2019-03-03T01:15:29.158Z,42.29
2019-03-03T01:18:18.968Z,42.51
2019-03-03T01:20:53.764Z,42.55
2019-03-03T01:23:39.263Z,42.54
2019-03-03T01:26:12.892Z,42.33
2019-03-03T01:28:42.406Z,42.53
2019-03-03T01:31:10.135Z,42.35
2019-03-03T01:33:37.878Z,42.68
2019-03-03T01:36:05.614Z,42.77
2019-03-03T01:38:33.410Z,42.60
2019-03-03T01:41:01.162Z,42.90
2019-03-03T01:43:28.879Z,42.88
2019-03-03T01:45:56.620Z,42.72
2019-03-03T01:48:24.331Z,43.19
2019-03-03T01:50:52.063Z,43.08
2019-03-03T01:53:19.810Z,43.17
2019-03-03T01:55:47.530Z,43.02
2019-03-03T01:58:15.358Z,43.08
2019-03-03T02:00:44.943Z,43.04
2019-03-03T02:03:12.737Z,42.87
2019-03-03T02:05:48.006Z,43.15
2019-03-03T02:08:15.742Z,43.36
2019-03-03T02:10:43.483Z,43.41
2019-03-03T02:13:11.510Z,43.39
2019-03-03T02:15:39.254Z,44.05
2019-03-03T02:18:07.002Z,43.64
2019-03-03T02:20:34.722Z,43.68
2019-03-03T02:23:02.530Z,43.29
2019-03-03T02:25:30.266Z,43.88
2019-03-03T02:27:57.982Z,44.03
2019-03-03T02:30:25.697Z,43.68
2019-03-03T02:32:53.435Z,43.64
2019-03-03T02:41:50.600Z,43.85
2019-03-03T02:53:55.795Z,44.37
2019-03-03T03:07:00.116Z,44.35
2019-03-03T04:00:39.696Z,44.81
2019-03-03T04:26:34.836Z,44.82
2019-03-03T04:36:00.769Z,44.56
2019-03-03T04:45:40.151Z,44.80
2019-03-03T04:48:46.622Z,44.91
2019-03-03T05:03:58.487Z,44.96
2019-03-03T05:13:20.919Z,45.18
2019-03-03T05:25:31.342Z,45.22
2019-03-03T05:28:08.540Z,45.25
2019-03-03T05:39:58.667Z,45.84
2019-03-03T05:52:13.359Z,45.31
2019-03-03T05:57:50.719Z,45.44
2019-03-03T06:16:05.102Z,45.35
2019-03-03T06:21:29.939Z,45.68
2019-03-03T06:24:00.373Z,45.83
2019-03-03T06:39:24.784Z,46.43
2019-03-03T07:14:36.201Z,45.96
2019-03-03T07:23:59.779Z,46.03
2019-03-03T07:26:27.490Z,46.64
2019-03-03T07:29:07.538Z,46.34
2019-03-03T07:38:12.867Z,45.82
2019-03-03T07:43:49.812Z,46.45
2019-03-03T07:46:17.555Z,46.51
2019-03-03T07:48:45.280Z,46.74
2019-03-03T07:51:13.006Z,46.49
2019-03-03T07:53:40.723Z,46.72
2019-03-03T07:56:12.480Z,46.97
2019-03-03T07:58:40.225Z,46.71
2019-03-03T08:01:07.937Z,46.53
2019-03-03T08:03:35.643Z,46.69
2019-03-03T08:06:03.352Z,46.99
2019-03-03T08:08:31.087Z,46.89
2019-03-03T08:10:58.789Z,46.78
2019-03-03T08:13:26.502Z,46.64
2019-03-03T08:15:54.231Z,46.65
2019-03-03T08:18:22.088Z,46.62
2019-03-03T08:20:49.834Z,47.14
2019-03-03T08:23:17.560Z,47.28
2019-03-03T08:25:45.303Z,47.09
2019-03-03T08:28:13.043Z,47.46
2019-03-03T08:30:40.767Z,46.80
2019-03-03T08:33:08.563Z,46.93
2019-03-03T08:35:36.369Z,46.47
2019-03-03T08:38:04.148Z,47.47
2019-03-03T08:40:38.477Z,47.33
2019-03-03T08:43:26.772Z,47.33
2019-03-03T08:46:19.472Z,47.05
2019-03-03T08:49:06.354Z,46.99
2019-03-03T08:51:41.674Z,47.88
2019-03-03T08:54:31.744Z,47.14
2019-03-03T08:57:24.110Z,48.15
2019-03-03T09:00:04.247Z,47.69
2019-03-03T09:02:49.591Z,47.10
2019-03-03T09:05:35.086Z,47.44
2019-03-03T09:08:21.908Z,47.03
2019-03-03T09:11:17.878Z,47.42
2019-03-03T09:14:14.879Z,47.80
2019-03-03T09:16:52.168Z,47.48
2019-03-03T09:19:40.715Z,47.80
2019-03-03T09:22:31.657Z,47.76
2019-03-03T09:25:24.491Z,47.33
2019-03-03T09:28:13.214Z,47.55
2019-03-03T09:30:48.034Z,47.27
2019-03-03T09:33:30.038Z,47.17
2019-03-03T09:36:05.703Z,47.54
2019-03-03T09:38:40.616Z,47.36
2019-03-03T09:41:18.275Z,47.55
2019-03-03T09:43:57.580Z,47.26
2019-03-03T09:46:34.288Z,47.59
2019-03-03T09:49:23.775Z,48.40
2019-03-03T09:52:14.355Z,47.30
2019-03-03T09:54:47.397Z,47.38
2019-03-03T09:57:33.164Z,47.36
2019-03-03T10:00:19.078Z,47.24
2019-03-03T10:03:08.447Z,47.26
2019-03-03T10:05:55.291Z,47.27
2019-03-03T10:08:29.995Z,47.53
2019-03-03T10:11:15.845Z,47.62
2019-03-03T10:13:57.403Z,47.55
2019-03-03T10:16:46.111Z,47.08
2019-03-03T10:19:31.806Z,47.00
2019-03-03T10:22:08.498Z,47.38
2019-03-03T10:25:04.896Z,47.50
2019-03-03T10:28:00.380Z,47.62
2019-03-03T10:30:59.354Z,48.19
2019-03-03T10:33:38.881Z,47.43
2019-03-03T10:36:24.661Z,47.76
2019-03-03T10:39:21.931Z,47.75
2019-03-03T10:42:17.970Z,47.25
2019-03-03T10:45:04.850Z,47.62
2019-03-03T10:47:45.611Z,47.75
2019-03-03T10:50:30.728Z,47.25
2019-03-03T10:53:03.128Z,47.29
2019-03-03T10:55:58.712Z,48.70
2019-03-03T10:58:48.682Z,47.28
2019-03-03T11:01:26.838Z,47.46
2019-03-03T11:04:12.155Z,48.17
2019-03-03T11:06:57.278Z,47.05
2019-03-03T11:09:42.835Z,47.42
2019-03-03T11:12:23.829Z,48.39
2019-03-03T11:15:19.188Z,47.33
2019-03-03T11:17:58.649Z,47.43
2019-03-03T11:20:44.219Z,47.28
2019-03-03T11:23:20.435Z,47.33
2019-03-03T11:26:00.283Z,47.56
2019-03-03T11:28:44.386Z,47.32
2019-03-03T11:31:29.331Z,47.91
2019-03-03T11:34:12.703Z,47.25
2019-03-03T11:36:54.092Z,47.34
2019-03-03T11:39:26.556Z,47.22
2019-03-03T11:42:01.239Z,47.45
2019-03-03T11:44:50.957Z,47.33
2019-03-03T11:47:43.914Z,47.35
2019-03-03T11:50:36.767Z,47.64
2019-03-03T11:53:14.137Z,47.58
2019-03-03T11:55:51.401Z,47.47
2019-03-03T11:58:30.938Z,47.40
2019-03-03T12:01:26.991Z,47.26
2019-03-03T12:04:17.883Z,47.38
2019-03-03T12:07:04.007Z,47.50
2019-03-03T12:09:50.606Z,47.42
2019-03-03T12:12:31.461Z,47.43
2019-03-03T12:15:24.390Z,47.22
2019-03-03T12:18:02.036Z,47.26
2019-03-03T12:20:47.808Z,47.37
2019-03-03T12:23:49.884Z,47.36
2019-03-03T12:26:27.783Z,47.70
2019-03-03T12:29:13.048Z,47.27
2019-03-03T12:31:47.434Z,47.60
2019-03-03T12:34:34.395Z,47.23
2019-03-03T12:37:20.219Z,47.31
2019-03-03T12:40:14.107Z,47.35
2019-03-03T12:42:58.998Z,48.59
2019-03-03T12:45:32.764Z,47.40
2019-03-03T12:48:11.028Z,47.88
2019-03-03T12:50:48.119Z,47.39
2019-03-03T12:53:41.046Z,47.39
2019-03-03T12:56:34.086Z,47.22
2019-03-03T12:59:29.548Z,47.35
2019-03-03T13:02:24.582Z,47.98
2019-03-03T13:05:10.539Z,47.53
2019-03-03T13:08:00.199Z,47.31
2019-03-03T13:10:50.587Z,47.11
2019-03-03T13:13:40.318Z,47.41
2019-03-03T13:16:30.237Z,47.82
2019-03-03T13:19:17.716Z,47.49
2019-03-03T13:22:07.620Z,47.46
2019-03-03T13:24:47.879Z,47.48
2019-03-03T13:27:33.692Z,47.57
2019-03-03T13:30:29.727Z,47.75
2019-03-03T13:33:11.436Z,47.82
2019-03-03T13:35:47.905Z,47.76
2019-03-03T13:38:40.257Z,47.95
2019-03-03T13:41:14.588Z,47.70
2019-03-03T13:43:42.354Z,47.80
2019-03-03T13:46:15.208Z,48.07
2019-03-03T13:48:42.966Z,48.09
2019-03-03T13:51:10.682Z,48.01
2019-03-03T13:53:38.423Z,48.07
2019-03-03T13:56:06.142Z,48.40
2019-03-03T13:58:33.879Z,47.86
2019-03-03T14:01:01.579Z,47.83
2019-03-03T14:03:29.311Z,48.37
2019-03-03T14:05:57.157Z,47.95
2019-03-03T14:08:24.985Z,47.85
2019-03-03T14:10:52.703Z,47.93
2019-03-03T14:13:20.475Z,47.94
2019-03-03T14:15:48.211Z,47.96
2019-03-03T14:18:16.001Z,47.92
2019-03-03T14:20:44.133Z,47.88
2019-03-03T14:23:11.843Z,48.36
2019-03-03T14:25:39.576Z,47.83
2019-03-03T14:28:13.248Z,47.80
2019-03-03T14:30:40.983Z,47.80
2019-03-03T14:33:08.720Z,47.88
2019-03-03T14:35:36.430Z,48.03
2019-03-03T14:38:04.159Z,47.94
2019-03-03T14:40:31.970Z,47.93
2019-03-03T14:42:59.723Z,47.88
2019-03-03T14:45:27.699Z,47.89
2019-03-03T14:47:55.412Z,47.89
2019-03-03T14:50:23.129Z,47.98
2019-03-03T14:52:50.867Z,47.96
2019-03-03T14:55:18.778Z,48.03
2019-03-03T14:57:46.514Z,48.02
2019-03-03T15:00:21.223Z,48.04
2019-03-03T15:02:48.961Z,48.36
2019-03-03T15:05:25.447Z,48.16
2019-03-03T15:07:49.104Z,48.08
2019-03-03T15:10:16.840Z,47.96
2019-03-03T15:12:44.566Z,47.92
2019-03-03T15:15:12.412Z,48.12
2019-03-03T15:17:40.147Z,47.87
2019-03-03T15:20:07.863Z,47.96
2019-03-03T15:22:35.591Z,48.03
2019-03-03T15:25:03.331Z,47.97
2019-03-03T15:27:31.070Z,48.00
2019-03-03T15:29:58.787Z,47.94
2019-03-03T15:32:26.534Z,48.03
2019-03-03T15:34:54.255Z,48.05
2019-03-03T15:37:21.975Z,48.05
2019-03-03T15:39:49.735Z,47.97
2019-03-03T15:42:17.460Z,48.02
2019-03-03T15:44:45.228Z,48.00
2019-03-03T15:47:20.750Z,47.97
2019-03-03T15:49:49.199Z,47.93
2019-03-03T15:52:16.923Z,48.04
2019-03-03T15:54:44.679Z,48.01
2019-03-03T15:57:15.758Z,48.05
2019-03-03T15:59:43.491Z,48.00
2019-03-03T16:02:12.622Z,47.91
2019-03-03T16:04:40.420Z,47.96
2019-03-03T16:07:08.131Z,47.93
2019-03-03T16:09:35.888Z,48.06
2019-03-03T16:12:03.635Z,48.12
2019-03-03T16:14:31.622Z,48.10
2019-03-03T16:16:59.370Z,48.19
2019-03-03T16:19:27.083Z,48.16
2019-03-03T16:22:00.840Z,48.03
2019-03-03T16:24:27.663Z,47.99
2019-03-03T16:26:55.375Z,48.05
2019-03-03T16:29:23.117Z,47.99
2019-03-03T16:31:50.834Z,47.89
2019-03-03T16:34:18.591Z,47.89
2019-03-03T16:36:46.393Z,48.14
2019-03-03T16:39:14.102Z,48.02
2019-03-03T16:41:41.814Z,48.10
2019-03-03T16:44:09.531Z,48.17
2019-03-03T16:46:37.295Z,48.12
2019-03-03T16:49:05.007Z,48.05
2019-03-03T16:51:32.715Z,47.93
2019-03-03T16:54:01.279Z,47.84
2019-03-03T16:56:29.006Z,47.90
2019-03-03T16:58:57.770Z,47.90
2019-03-03T17:01:25.536Z,47.95
2019-03-03T17:03:54.783Z,47.94
2019-03-03T17:06:28.557Z,47.97
2019-03-03T17:08:53.913Z,48.09
2019-03-03T17:11:21.623Z,48.03
2019-03-03T17:13:49.330Z,47.99
2019-03-03T17:16:17.054Z,48.05
2019-03-03T17:18:44.830Z,48.12
2019-03-03T17:21:12.541Z,48.21
2019-03-03T17:23:40.262Z,48.28
2019-03-03T17:26:09.477Z,48.18
2019-03-03T17:28:37.383Z,49.33
2019-03-03T17:31:05.148Z,48.66
2019-03-03T17:33:32.876Z,49.10
2019-03-03T17:36:00.621Z,48.90
2019-03-03T17:38:28.349Z,48.64
2019-03-03T17:40:56.063Z,48.61
2019-03-03T17:43:23.806Z,48.67
2019-03-03T17:45:51.792Z,48.58
2019-03-03T17:48:33.681Z,48.78
2019-03-03T17:50:53.318Z,48.65
2019-03-03T17:53:21.043Z,48.97
2019-03-03T17:55:48.761Z,49.65
2019-03-03T17:58:16.527Z,48.95
2019-03-03T18:00:45.344Z,48.91
2019-03-03T18:03:13.121Z,49.11
2019-03-03T18:05:40.839Z,49.22
2019-03-03T18:08:08.550Z,49.77
2019-03-03T18:10:36.306Z,49.63
2019-03-03T18:13:04.044Z,49.25
2019-03-03T18:15:31.767Z,49.79
2019-03-03T18:17:59.477Z,49.47
2019-03-03T18:20:27.179Z,49.61
2019-03-03T18:22:54.931Z,49.83
2019-03-03T18:25:22.741Z,49.70
2019-03-03T18:27:58.229Z,49.85
2019-03-03T18:30:24.599Z,49.58
2019-03-03T18:32:52.748Z,49.51
2019-03-03T18:35:20.624Z,50.10
2019-03-03T18:37:48.391Z,50.98
2019-03-03T18:40:16.918Z,50.34
2019-03-03T18:42:44.674Z,50.22
2019-03-03T18:45:13.037Z,50.00
2019-03-03T18:47:40.834Z,50.52
2019-03-03T18:50:10.191Z,50.32
2019-03-03T18:52:38.055Z,50.78
2019-03-03T18:55:06.429Z,49.69
2019-03-03T18:57:34.182Z,50.13
2019-03-03T19:00:01.913Z,50.29
2019-03-03T19:02:29.785Z,50.41
2019-03-03T19:04:57.624Z,50.81
2019-03-03T19:07:32.249Z,50.58
2019-03-03T19:10:03.459Z,49.97
2019-03-03T19:12:31.276Z,50.57
2019-03-03T19:15:04.472Z,50.32
2019-03-03T19:17:35.287Z,50.46
2019-03-03T19:20:03.333Z,50.39
2019-03-03T19:22:32.260Z,50.33
2019-03-03T19:25:00.285Z,50.13
2019-03-03T19:27:28.463Z,50.66
2019-03-03T19:29:56.272Z,50.80
2019-03-03T19:32:24.188Z,51.49
2019-03-03T19:34:53.290Z,50.37
2019-03-03T19:37:21.179Z,50.42
2019-03-03T19:39:59.776Z,50.68
2019-03-03T19:42:27.715Z,51.05
2019-03-03T19:44:55.606Z,51.32
2019-03-03T19:47:23.493Z,51.19
2019-03-03T19:49:52.664Z,50.61
2019-03-03T19:52:20.689Z,50.33
2019-03-03T19:54:48.472Z,50.31
2019-03-03T19:57:16.327Z,50.75
2019-03-03T19:59:44.059Z,51.17
2019-03-03T20:02:12.153Z,50.61
2019-03-03T20:04:40.166Z,50.43
2019-03-03T20:07:08.061Z,50.51
2019-03-03T20:09:38.311Z,50.31
2019-03-03T20:12:06.456Z,50.26
2019-03-03T20:14:43.677Z,50.74
2019-03-03T20:17:11.658Z,50.61
2019-03-03T20:19:39.581Z,50.91
2019-03-03T20:22:07.316Z,50.47
2019-03-03T20:24:35.133Z,50.64
2019-03-03T20:27:02.934Z,50.37
2019-03-03T20:29:30.816Z,50.66
2019-03-03T20:31:58.568Z,50.58
2019-03-03T20:34:26.431Z,50.40
2019-03-03T20:36:54.144Z,50.29
2019-03-03T20:39:22.031Z,50.09
2019-03-03T20:41:49.842Z,50.36
2019-03-03T20:44:17.608Z,50.60
2019-03-03T20:46:45.377Z,50.45
2019-03-03T20:49:13.219Z,50.60
2019-03-03T20:51:42.086Z,50.44
2019-03-03T20:54:13.584Z,50.37
2019-03-03T20:56:46.634Z,50.27
2019-03-03T20:59:14.431Z,50.28
2019-03-03T21:01:42.179Z,50.16
2019-03-03T21:04:09.942Z,50.32
2019-03-03T21:06:37.682Z,50.31
2019-03-03T21:09:06.043Z,50.63
2019-03-03T21:11:33.866Z,50.70
2019-03-03T21:14:03.725Z,50.57
2019-03-03T21:16:32.166Z,50.29
2019-03-03T21:18:59.903Z,50.38
2019-03-03T21:21:27.654Z,50.55
2019-03-03T21:23:55.508Z,50.36
2019-03-03T21:26:23.228Z,50.22
2019-03-03T21:28:51.017Z,50.41
2019-03-03T21:31:22.570Z,50.22
2019-03-03T21:33:57.494Z,50.39
2019-03-03T21:36:25.325Z,50.17
2019-03-03T21:38:53.055Z,50.39
2019-03-03T21:41:20.866Z,50.36
2019-03-03T21:43:48.707Z,50.89
2019-03-03T21:46:16.469Z,51.07
2019-03-03T21:48:44.227Z,50.83
2019-03-03T21:51:12.016Z,50.67
2019-03-03T21:53:39.754Z,50.53
2019-03-03T21:56:07.544Z,50.66
2019-03-03T21:58:35.463Z,50.79
2019-03-03T22:01:03.241Z,50.78
2019-03-03T22:03:30.972Z,50.77
2019-03-03T22:05:58.715Z,50.54
2019-03-03T22:08:26.460Z,50.74
2019-03-03T22:10:54.192Z,50.75
2019-03-03T22:13:33.545Z,50.78
2019-03-03T22:15:55.836Z,50.45
2019-03-03T22:18:23.630Z,50.72
2019-03-03T22:20:51.407Z,50.60
2019-03-03T22:23:19.171Z,50.50
2019-03-03T22:25:47.040Z,50.85
2019-03-03T22:28:14.763Z,51.08
2019-03-03T22:30:42.614Z,50.91
2019-03-03T22:33:10.371Z,50.81
2019-03-03T22:35:38.274Z,51.03
2019-03-03T22:38:06.111Z,50.88
2019-03-03T22:40:33.942Z,50.63
2019-03-03T22:43:01.684Z,50.52
2019-03-03T22:45:29.471Z,50.93
2019-03-03T22:47:57.215Z,51.07
2019-03-03T22:50:24.973Z,50.95
2019-03-03T22:52:52.811Z,51.01
2019-03-03T22:55:31.181Z,50.75
2019-03-03T22:57:58.913Z,50.52
2019-03-03T23:00:43.013Z,50.83
2019-03-03T23:03:10.854Z,50.90
2019-03-03T23:06:02.805Z,50.68
2019-03-03T23:09:02.657Z,50.82
2019-03-03T23:11:51.032Z,50.46
2019-03-03T23:14:46.029Z,51.20
2019-03-03T23:17:42.347Z,50.94
2019-03-03T23:20:13.487Z,50.81
2019-03-03T23:22:47.094Z,50.61
2019-03-03T23:25:38.814Z,50.82
2019-03-03T23:28:07.529Z,50.66
2019-03-03T23:30:35.555Z,50.83
2019-03-03T23:33:03.536Z,50.81
2019-03-03T23:38:53.070Z,50.78
2019-03-03T23:41:27.064Z,50.87
2019-03-03T23:43:59.521Z,51.03
2019-03-03T23:46:30.488Z,50.95
2019-03-03T23:49:00.962Z,50.87
2019-03-03T23:54:25.953Z,50.97
2019-03-03T23:56:53.835Z,50.82
2019-03-03T23:59:21.673Z,50.96
